Time;durP1;ratioP1;P1;durP2;ratioP2;P2;SDS_P1;SDS_P2;PMS_P1;PMS_P2;Temp;Humidity;BMP_temperature;BMP_pressure;BME280_temperature;BME280_humidity;BME280_pressure;Samples;Min_cycle;Max_cycle;Signal;HPM_P1;HPM_P2
2022/01/10 00:01:07;;;;;;;3.20;2.00;;;21.20;42.70;;;;;;5044253;28;44032;-64
2022/01/10 00:03:35;;;;;;;3.40;1.95;;;21.20;42.60;;;;;;5044220;28;44056;-63
2022/01/10 00:06:03;;;;;;;5.70;2.42;;;21.30;42.70;;;;;;5045005;28;43548;-63
2022/01/10 00:08:31;;;;;;;4.65;2.40;;;21.20;42.60;;;;;;5042715;28;43578;-64
2022/01/10 00:10:58;;;;;;;3.63;2.25;;;21.20;42.60;;;;;;5044728;28;43630;-64
2022/01/10 00:13:26;;;;;;;4.05;2.00;;;21.20;42.60;;;;;;5048206;28;43455;-63
2022/01/10 00:15:53;;;;;;;2.67;1.80;;;21.20;42.60;;;;;;5047801;28;43567;-64
2022/01/10 00:18:21;;;;;;;4.65;2.05;;;21.20;42.50;;;;;;5044370;28;43506;-63
2022/01/10 00:20:48;;;;;;;3.20;2.17;;;21.30;42.60;;;;;;5046686;28;43794;-64
2022/01/10 00:23:16;;;;;;;2.95;1.90;;;21.30;42.60;;;;;;5047940;28;44061;-64
2022/01/10 00:25:43;;;;;;;5.60;2.20;;;21.30;42.60;;;;;;5048685;28;43540;-64
2022/01/10 00:28:11;;;;;;;4.00;2.05;;;21.30;42.60;;;;;;5049957;28;43573;-63
2022/01/10 00:30:38;;;;;;;3.40;2.00;;;21.30;42.60;;;;;;5046630;28;45278;-64
2022/01/10 00:33:05;;;;;;;3.90;2.20;;;21.30;42.60;;;;;;5045798;28;43892;-63
2022/01/10 00:35:34;;;;;;;4.03;1.98;;;21.30;42.60;;;;;;5065142;28;43509;-63
2022/01/10 00:38:01;;;;;;;4.18;2.15;;;21.30;42.50;;;;;;5026369;28;43469;-64
2022/01/10 00:40:29;;;;;;;4.35;2.17;;;21.30;43.20;;;;;;5044207;28;43776;-64
2022/01/10 00:42:57;;;;;;;4.20;2.25;;;21.30;42.60;;;;;;5048416;28;43467;-63
2022/01/10 00:45:27;;;;;;;4.15;2.20;;;21.30;42.50;;;;;;5050899;28;43554;-65
2022/01/10 00:48:00;;;;;;;4.05;2.22;;;21.30;42.50;;;;;;5066749;28;43660;-63
2022/01/10 00:50:28;;;;;;;4.40;1.83;;;21.30;42.50;;;;;;5079229;27;43572;-63
2022/01/10 00:52:57;;;;;;;4.43;2.17;;;21.30;42.50;;;;;;5051196;28;43603;-63
2022/01/10 00:55:25;;;;;;;4.47;2.50;;;21.40;42.60;;;;;;5082290;27;43478;-63
2022/01/10 00:57:52;;;;;;;4.20;2.20;;;21.30;42.50;;;;;;5050742;28;43497;-64
2022/01/10 01:00:20;;;;;;;2.58;1.60;;;21.40;42.60;;;;;;5061697;28;44659;-64
2022/01/10 01:02:49;;;;;;;3.33;2.00;;;21.40;42.60;;;;;;5046364;28;43652;-64
2022/01/10 01:05:20;;;;;;;4.55;2.50;;;21.30;42.50;;;;;;5044130;28;43416;-63
2022/01/10 01:07:49;;;;;;;4.70;2.50;;;21.40;42.50;;;;;;5045284;28;43587;-63
2022/01/10 01:13:08;;;;;;;3.80;2.30;;;21.40;42.60;;;;;;5082809;27;45860;-63
2022/01/10 01:15:56;;;;;;;5.05;2.33;;;21.40;42.60;;;;;;5052890;28;43416;-64
2022/01/10 01:19:13;;;;;;;3.22;2.13;;;21.40;42.50;;;;;;5066934;28;43460;-63
2022/01/10 01:24:07;;;;;;;4.32;2.20;;;21.40;42.50;;;;;;5050675;28;43533;-64
2022/01/10 01:26:43;;;;;;;4.13;2.55;;;21.40;42.50;;;;;;5047774;28;43558;-64
2022/01/10 01:29:14;;;;;;;4.78;2.50;;;21.40;42.50;;;;;;5051908;28;43638;-65
2022/01/10 01:31:42;;;;;;;3.50;2.15;;;21.50;42.50;;;;;;5076225;27;44289;-64
2022/01/10 01:34:11;;;;;;;5.05;2.63;;;21.40;42.40;;;;;;5043654;28;43383;-63
2022/01/10 01:36:39;;;;;;;3.28;2.15;;;21.40;42.50;;;;;;5062416;28;43482;-63
2022/01/10 01:39:17;;;;;;;5.65;2.40;;;21.50;42.50;;;;;;5051877;28;43606;-64
2022/01/10 01:42:02;;;;;;;3.00;2.10;;;21.50;42.50;;;;;;5057128;28;44088;-63
2022/01/10 01:44:30;;;;;;;3.63;2.10;;;21.50;42.50;;;;;;5055710;28;43527;-63
2022/01/10 01:46:58;;;;;;;4.35;2.45;;;21.50;42.50;;;;;;5058746;28;43411;-64
2022/01/10 01:49:26;;;;;;;3.65;2.10;;;21.50;42.40;;;;;;5041620;28;43455;-64
2022/01/10 01:51:53;;;;;;;4.18;2.47;;;21.50;42.40;;;;;;5074340;27;43995;-62
2022/01/10 01:54:20;;;;;;;4.13;2.22;;;21.50;42.40;;;;;;5044129;28;43511;-63
2022/01/10 01:56:48;;;;;;;4.68;2.35;;;21.50;42.40;;;;;;5076777;27;43489;-64
2022/01/10 01:59:17;;;;;;;3.42;2.60;;;21.50;42.40;;;;;;5044448;28;43624;-63
2022/01/10 02:01:45;;;;;;;3.70;2.28;;;21.50;42.30;;;;;;5041631;28;44038;-64
2022/01/10 02:04:13;;;;;;;3.75;2.40;;;21.50;42.30;;;;;;5061219;28;43578;-63
2022/01/10 02:06:43;;;;;;;4.28;2.25;;;21.50;42.30;;;;;;5056850;28;43426;-64
2022/01/10 02:09:14;;;;;;;5.35;2.60;;;21.50;42.30;;;;;;5042533;28;44108;-63
2022/01/10 02:11:45;;;;;;;4.65;2.30;;;21.50;42.30;;;;;;5037598;28;44037;-64
2022/01/10 02:14:18;;;;;;;3.10;2.10;;;21.60;42.40;;;;;;5065295;28;43663;-63
2022/01/10 02:16:53;;;;;;;3.65;2.40;;;21.60;42.40;;;;;;5064482;28;43470;-63
2022/01/10 02:19:31;;;;;;;3.88;2.20;;;21.60;42.30;;;;;;5041164;28;43480;-64
2022/01/10 02:21:59;;;;;;;4.55;2.30;;;21.60;42.30;;;;;;5047452;28;44222;-64
2022/01/10 02:24:33;;;;;;;5.00;2.50;;;21.60;42.30;;;;;;5047153;28;43476;-63
2022/01/10 02:27:03;;;;;;;3.58;2.30;;;21.60;42.30;;;;;;5061987;28;43427;-64
2022/01/10 02:29:36;;;;;;;3.38;2.40;;;21.60;42.30;;;;;;5049399;28;43658;-64
2022/01/10 02:32:04;;;;;;;4.60;2.17;;;21.60;42.30;;;;;;5083379;27;44161;-64
2022/01/10 02:34:32;;;;;;;2.28;2.00;;;21.60;42.20;;;;;;5080791;27;44027;-63
2022/01/10 02:37:00;;;;;;;4.78;2.55;;;21.60;42.20;;;;;;5050167;28;43483;-64
2022/01/10 02:39:32;;;;;;;3.78;2.30;;;21.60;42.20;;;;;;5065135;28;43482;-63
2022/01/10 02:41:59;;;;;;;2.65;2.00;;;21.70;42.30;;;;;;5050375;28;44691;-64
2022/01/10 02:44:29;;;;;;;4.80;2.40;;;21.70;42.20;;;;;;5054036;28;44233;-64
2022/01/10 02:46:57;;;;;;;5.00;2.15;;;21.70;42.20;;;;;;5083393;27;43389;-63
2022/01/10 02:49:33;;;;;;;4.68;2.40;;;21.70;42.20;;;;;;5068930;28;43525;-64
2022/01/10 02:52:02;;;;;;;3.55;2.35;;;21.70;42.20;;;;;;5053100;28;43533;-63
2022/01/10 02:54:32;;;;;;;3.30;2.10;;;21.70;42.10;;;;;;5050308;28;43654;-63
2022/01/10 02:57:05;;;;;;;3.80;2.55;;;21.70;42.20;;;;;;5047802;28;43459;-64
2022/01/10 02:59:36;;;;;;;2.83;1.90;;;21.70;42.20;;;;;;5050884;28;43551;-64
2022/01/10 03:02:07;;;;;;;6.03;2.70;;;21.70;42.10;;;;;;5064094;28;44664;-63
2022/01/10 03:04:36;;;;;;;3.53;2.13;;;21.70;42.10;;;;;;5038826;28;43925;-64
2022/01/10 03:07:04;;;;;;;2.20;1.70;;;21.70;42.20;;;;;;5049418;28;43510;-63
2022/01/10 03:09:31;;;;;;;3.03;2.17;;;21.70;42.10;;;;;;5054581;28;43520;-63
2022/01/10 03:11:59;;;;;;;4.68;2.20;;;21.70;42.10;;;;;;5043767;28;45759;-64
2022/01/10 03:14:26;;;;;;;3.65;2.30;;;21.70;42.00;;;;;;5054661;28;43605;-64
2022/01/10 03:16:54;;;;;;;3.67;2.20;;;21.80;42.20;;;;;;5090063;27;43562;-63
2022/01/10 03:19:21;;;;;;;5.25;2.38;;;21.80;42.10;;;;;;5068444;28;43560;-63
2022/01/10 03:21:49;;;;;;;3.03;1.85;;;21.80;42.10;;;;;;5043714;28;43838;-64
2022/01/10 03:24:16;;;;;;;2.50;1.90;;;21.80;42.10;;;;;;5046481;28;43515;-64
2022/01/10 03:26:44;;;;;;;3.55;1.92;;;21.80;42.00;;;;;;5050123;28;43451;-63
2022/01/10 03:29:11;;;;;;;5.05;2.33;;;21.70;42.00;;;;;;5062541;28;43463;-64
2022/01/10 03:31:39;;;;;;;3.13;2.10;;;21.80;42.10;;;;;;5044206;28;43799;-63
2022/01/10 03:34:10;;;;;;;4.22;2.20;;;21.80;42.00;;;;;;5027241;28;44390;-63
2022/01/10 03:36:38;;;;;;;3.42;2.00;;;21.80;42.00;;;;;;5046553;28;43458;-63
2022/01/10 03:39:05;;;;;;;2.83;2.00;;;21.80;42.10;;;;;;5045042;28;43613;-63
2022/01/10 03:41:33;;;;;;;4.45;2.53;;;21.80;42.00;;;;;;5045380;28;43946;-63
2022/01/10 03:44:01;;;;;;;2.65;2.00;;;21.80;42.00;;;;;;5046642;28;43594;-64
2022/01/10 03:46:31;;;;;;;4.22;1.95;;;21.80;42.00;;;;;;5043326;28;43436;-64
2022/01/10 03:49:01;;;;;;;3.17;2.17;;;21.80;42.00;;;;;;5063531;28;43565;-63
2022/01/10 03:51:29;;;;;;;2.42;1.63;;;21.90;42.10;;;;;;5061997;28;43816;-63
2022/01/10 03:53:56;;;;;;;2.63;2.05;;;21.80;42.00;;;;;;5080792;27;43589;-63
2022/01/10 03:56:27;;;;;;;3.53;2.00;;;21.80;42.00;;;;;;5048839;28;43521;-63
2022/01/10 03:58:54;;;;;;;3.50;2.20;;;21.90;42.00;;;;;;5059459;28;43441;-64
2022/01/10 04:01:22;;;;;;;2.70;2.03;;;21.90;42.00;;;;;;5043823;28;43793;-64
2022/01/10 04:03:55;;;;;;;3.10;2.05;;;21.80;41.90;;;;;;5076585;27;43505;-63
2022/01/10 04:06:24;;;;;;;2.90;1.90;;;21.90;41.90;;;;;;5048257;28;43536;-63
2022/01/10 04:08:51;;;;;;;3.47;1.90;;;21.90;41.90;;;;;;5063571;28;43569;-64
2022/01/10 04:11:19;;;;;;;3.75;1.73;;;21.80;41.80;;;;;;5062463;28;45090;-63
2022/01/10 04:13:46;;;;;;;3.10;1.90;;;21.80;41.90;;;;;;5043567;28;43586;-64
2022/01/10 04:16:14;;;;;;;3.38;2.05;;;21.90;41.90;;;;;;5067792;28;43619;-63
2022/01/10 04:18:42;;;;;;;2.97;1.77;;;21.80;41.80;;;;;;5067305;28;43459;-63
2022/01/10 04:21:10;;;;;;;3.20;2.00;;;21.80;41.80;;;;;;5048192;28;43957;-63
2022/01/10 04:23:38;;;;;;;3.10;1.80;;;21.80;41.80;;;;;;5062938;28;43577;-64
2022/01/10 04:26:06;;;;;;;3.17;1.92;;;21.90;41.90;;;;;;5063140;28;43488;-64
2022/01/10 04:28:35;;;;;;;3.20;2.03;;;21.90;41.90;;;;;;5064709;28;43559;-64
2022/01/10 04:31:04;;;;;;;2.78;1.95;;;21.90;41.80;;;;;;5063343;28;43966;-65
2022/01/10 04:33:32;;;;;;;3.53;2.10;;;21.90;41.80;;;;;;5066729;28;44072;-64
2022/01/10 04:36:00;;;;;;;4.68;2.47;;;21.90;41.80;;;;;;5054507;28;43410;-63
2022/01/10 04:38:29;;;;;;;3.03;1.83;;;21.90;41.80;;;;;;5064554;28;44181;-63
2022/01/10 04:40:57;;;;;;;2.97;2.00;;;21.90;41.80;;;;;;5077024;27;43909;-63
2022/01/10 04:43:24;;;;;;;3.33;2.08;;;21.90;41.80;;;;;;5053114;28;43700;-64
2022/01/10 04:45:58;;;;;;;3.30;2.00;;;21.90;41.80;;;;;;5080372;27;43450;-64
2022/01/10 04:48:26;;;;;;;2.75;1.75;;;21.90;41.80;;;;;;5084790;27;43944;-63
2022/01/10 04:51:15;;;;;;;3.53;2.00;;;21.90;41.70;;;;;;5047879;28;44053;-64
2022/01/10 04:53:50;;;;;;;4.95;2.10;;;21.90;41.70;;;;;;5066625;28;43454;-63
2022/01/10 04:56:20;;;;;;;3.47;2.00;;;22.00;41.80;;;;;;5048224;28;43529;-64
2022/01/10 04:58:51;;;;;;;5.60;2.10;;;21.90;41.80;;;;;;5064839;28;43473;-64
2022/01/10 05:01:20;;;;;;;3.27;1.87;;;21.90;41.70;;;;;;5051644;28;43908;-63
2022/01/10 05:03:51;;;;;;;3.38;2.10;;;21.90;41.80;;;;;;5070466;28;43944;-63
2022/01/10 05:06:18;;;;;;;2.47;1.70;;;21.90;41.70;;;;;;5051879;28;43423;-63
2022/01/10 05:08:46;;;;;;;3.10;2.00;;;21.90;41.80;;;;;;5042572;28;43503;-63
2022/01/10 05:11:25;;;;;;;3.25;2.05;;;21.90;41.70;;;;;;5045294;28;43918;-64
2022/01/10 05:13:53;;;;;;;3.53;2.15;;;22.00;41.80;;;;;;5020946;28;43423;-64
2022/01/10 05:16:20;;;;;;;3.00;1.90;;;21.90;41.70;;;;;;5043159;28;43530;-63
2022/01/10 05:18:48;;;;;;;3.60;2.10;;;22.00;41.70;;;;;;5043098;28;43586;-63
2022/01/10 05:21:17;;;;;;;4.22;1.90;;;22.00;41.70;;;;;;5041753;28;43939;-64
2022/01/10 05:23:45;;;;;;;2.75;2.00;;;22.00;41.80;;;;;;5044770;28;43465;-64
2022/01/10 05:26:12;;;;;;;3.08;1.95;;;21.90;41.70;;;;;;5059832;28;43563;-63
2022/01/10 05:28:41;;;;;;;3.45;2.00;;;22.00;41.70;;;;;;5061131;28;43432;-64
2022/01/10 05:31:08;;;;;;;4.60;2.30;;;22.00;41.60;;;;;;5060377;28;44203;-64
2022/01/10 05:33:49;;;;;;;4.30;2.08;;;22.00;41.50;;;;;;5061607;28;43579;-63
2022/01/10 05:36:17;;;;;;;4.05;2.00;;;22.00;41.60;;;;;;5046376;28;43510;-63
2022/01/10 05:38:44;;;;;;;2.92;2.00;;;22.00;41.60;;;;;;5063313;28;43404;-64
2022/01/10 05:41:12;;;;;;;2.97;1.90;;;22.00;41.70;;;;;;5059879;28;45007;-63
2022/01/10 05:43:40;;;;;;;3.28;1.95;;;22.00;41.70;;;;;;5046581;28;43678;-63
2022/01/10 05:46:09;;;;;;;3.00;1.90;;;22.00;41.70;;;;;;5078857;27;44125;-63
2022/01/10 05:48:46;;;;;;;4.97;2.40;;;22.00;41.70;;;;;;5064996;28;43468;-63
2022/01/10 05:51:15;;;;;;;3.17;1.73;;;22.00;41.60;;;;;;5045290;28;44034;-63
2022/01/10 05:53:47;;;;;;;3.95;2.10;;;22.00;41.60;;;;;;5061724;28;44088;-64
2022/01/10 05:56:15;;;;;;;3.15;1.92;;;22.00;41.60;;;;;;5063515;28;43495;-63
2022/01/10 05:58:52;;;;;;;4.70;2.47;;;22.00;41.60;;;;;;5063467;28;43556;-63
2022/01/10 06:01:20;;;;;;;3.33;1.92;;;22.10;41.60;;;;;;5042814;28;43786;-63
2022/01/10 06:03:53;;;;;;;3.25;2.00;;;22.10;41.50;;;;;;5063123;28;44057;-63
2022/01/10 06:06:28;;;;;;;2.75;2.25;;;22.10;41.50;;;;;;5046178;28;43435;-63
2022/01/10 06:08:55;;;;;;;2.75;2.13;;;22.10;41.50;;;;;;5077548;27;43562;-63
2022/01/10 06:11:24;;;;;;;3.47;2.17;;;22.10;41.50;;;;;;5059175;28;43800;-63
2022/01/10 06:13:52;;;;;;;3.45;2.00;;;22.10;41.60;;;;;;5046565;28;43401;-64
2022/01/10 06:16:21;;;;;;;4.70;2.22;;;22.10;41.60;;;;;;5079217;27;43509;-64
2022/01/10 06:18:49;;;;;;;3.67;1.98;;;22.10;41.70;;;;;;5064652;28;43653;-63
2022/01/10 06:21:16;;;;;;;4.10;2.15;;;22.10;41.70;;;;;;5046265;28;43789;-63
2022/01/10 06:23:44;;;;;;;3.28;2.00;;;22.10;41.70;;;;;;5048026;28;43451;-63
2022/01/10 06:26:12;;;;;;;3.33;2.00;;;22.10;41.70;;;;;;5083512;27;43497;-63
2022/01/10 06:28:40;;;;;;;4.03;2.42;;;22.10;41.70;;;;;;5045712;28;43709;-62
2022/01/10 06:31:09;;;;;;;2.70;2.22;;;22.20;41.70;;;;;;5046013;28;44224;-63
2022/01/10 06:33:45;;;;;;;4.20;2.60;;;22.20;41.70;;;;;;5083190;27;43451;-63
2022/01/10 06:36:12;;;;;;;4.22;2.25;;;22.20;41.70;;;;;;5052350;28;43498;-63
2022/01/10 06:38:43;;;;;;;3.53;2.15;;;22.20;41.70;;;;;;5052609;28;43555;-64
2022/01/10 06:41:11;;;;;;;3.95;2.13;;;22.20;41.70;;;;;;5044444;28;43654;-63
2022/01/10 06:43:39;;;;;;;4.18;2.10;;;22.20;41.60;;;;;;5088222;27;43564;-63
2022/01/10 06:46:10;;;;;;;3.38;2.03;;;22.20;41.60;;;;;;5083365;27;43474;-63
2022/01/10 06:48:38;;;;;;;3.05;2.00;;;22.30;41.70;;;;;;5047952;28;43448;-63
2022/01/10 06:51:05;;;;;;;4.22;2.35;;;22.30;41.60;;;;;;5029077;28;44964;-64
2022/01/10 06:53:33;;;;;;;3.63;2.22;;;22.30;41.60;;;;;;5066444;28;43982;-64
2022/01/10 06:56:03;;;;;;;4.38;2.53;;;22.30;41.60;;;;;;5073158;27;43542;-63
2022/01/10 06:58:33;;;;;;;2.33;2.00;;;22.30;41.50;;;;;;5071887;27;43484;-63
2022/01/10 07:01:03;;;;;;;3.47;2.20;;;22.30;41.50;;;;;;5044279;28;43694;-63
2022/01/10 07:03:31;;;;;;;2.60;2.00;;;22.30;41.40;;;;;;5057302;28;43960;-63
2022/01/10 07:06:19;;;;;;;3.47;2.28;;;22.30;41.50;;;;;;5040847;28;43413;-63
2022/01/10 07:08:47;;;;;;;3.67;2.45;;;22.30;41.40;;;;;;5042117;28;43563;-64
2022/01/10 07:11:16;;;;;;;4.03;2.17;;;22.30;41.50;;;;;;5061348;28;44111;-64
2022/01/10 07:13:44;;;;;;;3.28;2.30;;;22.40;41.50;;;;;;5062862;28;43522;-63
2022/01/10 07:16:12;;;;;;;2.95;2.10;;;22.40;41.50;;;;;;5041411;28;43459;-64
2022/01/10 07:18:42;;;;;;;3.38;2.58;;;22.40;41.50;;;;;;5045612;28;43443;-63
2022/01/10 07:21:19;;;;;;;4.55;2.70;;;22.40;41.50;;;;;;5062394;28;43892;-63
2022/01/10 07:23:48;;;;;;;4.43;2.30;;;22.30;41.40;;;;;;5062371;28;43475;-63
2022/01/10 07:26:16;;;;;;;3.40;2.33;;;22.40;41.40;;;;;;5050535;28;43433;-64
2022/01/10 07:28:43;;;;;;;3.80;2.60;;;22.40;41.40;;;;;;5049825;28;44049;-64
2022/01/10 07:31:11;;;;;;;3.78;2.45;;;22.40;42.10;;;;;;5048388;28;43816;-63
2022/01/10 07:33:38;;;;;;;3.60;2.40;;;22.40;41.40;;;;;;5049891;28;43542;-64
2022/01/10 07:36:07;;;;;;;3.67;2.50;;;22.40;41.40;;;;;;5048930;28;43468;-63
2022/01/10 07:38:37;;;;;;;4.60;2.28;;;22.40;41.40;;;;;;5050922;28;43512;-64
2022/01/10 07:41:06;;;;;;;4.10;2.33;;;22.40;41.40;;;;;;5046798;28;43802;-64
2022/01/10 07:43:35;;;;;;;2.88;2.45;;;22.40;41.40;;;;;;5050743;28;43400;-64
2022/01/10 07:46:05;;;;;;;3.47;2.67;;;22.40;41.40;;;;;;5082207;27;43442;-64
2022/01/10 07:48:35;;;;;;;3.38;2.30;;;22.40;41.50;;;;;;5083470;27;43581;-64
2022/01/10 07:51:03;;;;;;;3.42;2.45;;;22.40;41.50;;;;;;5050274;28;45088;-63
2022/01/10 07:53:31;;;;;;;2.95;2.35;;;22.50;41.40;;;;;;5049885;28;43490;-63
2022/01/10 07:55:58;;;;;;;4.15;2.58;;;22.40;41.40;;;;;;5050799;28;43518;-64
2022/01/10 07:58:26;;;;;;;4.18;2.30;;;22.50;41.50;;;;;;5047074;28;43414;-63
2022/01/10 08:00:53;;;;;;;4.03;2.20;;;22.50;41.40;;;;;;5047450;28;43647;-64
2022/01/10 08:03:21;;;;;;;2.85;2.45;;;22.50;41.40;;;;;;5051133;28;43889;-64
2022/01/10 08:05:49;;;;;;;3.72;2.30;;;22.50;41.50;;;;;;5054591;28;43484;-64
2022/01/10 08:08:16;;;;;;;3.15;2.17;;;22.50;41.40;;;;;;5051789;28;43459;-64
2022/01/10 08:10:44;;;;;;;2.38;2.10;;;22.60;41.40;;;;;;5046688;28;44678;-64
2022/01/10 08:13:11;;;;;;;3.50;2.40;;;22.50;41.40;;;;;;5051527;28;43463;-64
2022/01/10 08:15:39;;;;;;;4.47;2.70;;;22.50;41.40;;;;;;5048619;28;43441;-63
2022/01/10 08:18:09;;;;;;;3.65;2.50;;;22.60;41.40;;;;;;5047127;28;43828;-64
2022/01/10 08:20:36;;;;;;;3.92;2.53;;;22.50;41.30;;;;;;5047336;28;43909;-63
2022/01/10 08:23:03;;;;;;;3.15;2.35;;;22.50;41.20;;;;;;5051483;28;43843;-63
2022/01/10 08:25:31;;;;;;;3.60;2.30;;;22.50;41.20;;;;;;5055150;28;43474;-62
2022/01/10 08:27:58;;;;;;;4.93;3.25;;;22.50;41.40;;;;;;5051847;28;43555;-64
2022/01/10 08:30:26;;;;;;;3.33;2.75;;;22.50;41.30;;;;;;5077574;27;44632;-64
2022/01/10 08:32:53;;;;;;;4.47;2.95;;;22.50;41.30;;;;;;5052254;28;43571;-64
2022/01/10 08:35:21;;;;;;;3.72;2.60;;;22.50;42.00;;;;;;5056807;28;43458;-63
2022/01/10 08:37:48;;;;;;;3.28;2.40;;;22.60;41.30;;;;;;5052769;28;43520;-65
2022/01/10 08:40:16;;;;;;;3.25;2.50;;;22.70;41.40;;;;;;5045584;28;44008;-63
2022/01/10 08:42:44;;;;;;;5.50;2.63;;;22.70;41.20;;;;;;5052749;28;43491;-63
2022/01/10 08:45:12;;;;;;;5.10;2.70;;;22.80;41.10;;;;;;5050726;28;43549;-64
2022/01/10 08:47:40;;;;;;;7.70;2.95;;;23.00;40.80;;;;;;5042548;28;43558;-63
2022/01/10 08:50:10;;;;;;;4.72;2.58;;;23.00;40.80;;;;;;5048313;28;43807;-64
2022/01/10 08:52:39;;;;;;;3.42;2.67;;;23.10;40.80;;;;;;5047424;28;43515;-64
2022/01/10 08:55:08;;;;;;;3.95;2.42;;;23.20;40.70;;;;;;5044252;28;43534;-65
2022/01/10 08:57:36;;;;;;;2.50;2.30;;;23.30;40.40;;;;;;5043196;28;43546;-65
2022/01/10 09:00:05;;;;;;;3.90;2.53;;;23.40;40.40;;;;;;5044384;28;43624;-64
2022/01/10 09:02:33;;;;;;;2.60;2.03;;;23.50;40.40;;;;;;5058714;28;43483;-64
2022/01/10 09:05:00;;;;;;;4.45;2.50;;;23.60;40.30;;;;;;5041663;28;43505;-66
2022/01/10 09:07:28;;;;;;;3.53;2.65;;;23.70;40.70;;;;;;5044761;28;43436;-65
2022/01/10 09:09:55;;;;;;;4.72;2.53;;;23.80;40.10;;;;;;5045261;28;43732;-64
2022/01/10 09:12:26;;;;;;;3.30;2.50;;;23.80;40.20;;;;;;5028317;28;44726;-65
2022/01/10 09:14:54;;;;;;;3.60;2.50;;;23.90;40.70;;;;;;5046513;28;43550;-65
2022/01/10 09:17:21;;;;;;;4.63;3.03;;;24.00;40.60;;;;;;5043812;28;43440;-64
2022/01/10 09:19:49;;;;;;;4.68;2.67;;;24.00;40.80;;;;;;5045054;28;43885;-65
2022/01/10 09:22:17;;;;;;;5.50;2.80;;;24.10;40.80;;;;;;5045863;28;43487;-66
2022/01/10 09:24:46;;;;;;;3.85;2.63;;;24.10;40.70;;;;;;5050901;28;44007;-65
2022/01/10 09:27:14;;;;;;;4.05;2.85;;;24.20;40.70;;;;;;5046341;28;43610;-65
2022/01/10 09:29:42;;;;;;;6.93;3.10;;;24.30;40.60;;;;;;5044420;28;43821;-64
2022/01/10 09:32:10;;;;;;;5.13;3.03;;;24.30;40.70;;;;;;5047514;28;43952;-64
2022/01/10 09:34:38;;;;;;;5.53;3.10;;;24.40;40.50;;;;;;5045803;28;43460;-64
2022/01/10 09:37:05;;;;;;;3.83;2.70;;;24.40;40.40;;;;;;5048383;28;43531;-65
2022/01/10 09:39:33;;;;;;;7.28;3.30;;;24.50;40.60;;;;;;5046908;28;43784;-63
2022/01/10 09:42:00;;;;;;;6.82;3.33;;;24.50;40.40;;;;;;5045880;28;43459;-63
2022/01/10 09:44:28;;;;;;;5.10;3.58;;;24.60;40.30;;;;;;5048347;28;43973;-64
2022/01/10 09:46:56;;;;;;;4.03;3.17;;;24.70;39.90;;;;;;5050525;28;43527;-64
2022/01/10 09:49:25;;;;;;;4.82;3.05;;;24.70;39.60;;;;;;5048861;28;43771;-63
2022/01/10 09:51:52;;;;;;;5.32;3.05;;;24.80;39.60;;;;;;5048231;28;43514;-63
2022/01/10 09:54:20;;;;;;;5.55;3.00;;;24.90;39.60;;;;;;5050624;28;43564;-64
2022/01/10 09:56:49;;;;;;;8.90;3.30;;;24.90;39.30;;;;;;5048332;28;43414;-65
2022/01/10 09:59:17;;;;;;;5.13;3.08;;;24.90;39.40;;;;;;5050378;28;43753;-62
2022/01/10 10:01:50;;;;;;;4.85;3.30;;;25.00;39.40;;;;;;5045229;28;43516;-63
2022/01/10 10:04:19;;;;;;;5.63;3.33;;;24.90;39.20;;;;;;5051731;28;43599;-62
2022/01/10 10:06:47;;;;;;;7.53;3.30;;;24.90;39.80;;;;;;5050456;28;43466;-63
2022/01/10 10:09:16;;;;;;;4.82;3.05;;;24.90;38.90;;;;;;5048002;28;43818;-63
2022/01/10 10:11:49;;;;;;;3.95;2.90;;;24.90;39.10;;;;;;5046443;28;43689;-62
2022/01/10 10:14:20;;;;;;;5.35;3.30;;;24.90;39.20;;;;;;5049465;28;43517;-63
2022/01/10 10:16:50;;;;;;;;;;;24.90;39.00;;;;;;5062420;28;43578;-62
2022/01/10 10:19:21;;;;;;;6.32;2.92;;;24.90;39.50;;;;;;5044777;28;43758;-63
2022/01/10 10:21:50;;;;;;;4.57;3.30;;;24.80;39.20;;;;;;5047897;28;43867;-62
2022/01/10 10:24:20;;;;;;;4.30;3.22;;;24.80;39.10;;;;;;5051343;28;43686;-64
2022/01/10 10:26:47;;;;;;;5.45;3.70;;;24.80;39.00;;;;;;5051528;28;43434;-63
2022/01/10 10:29:17;;;;;;;4.20;3.00;;;24.70;38.90;;;;;;5049985;28;44995;-63
2022/01/10 10:31:48;;;;;;;4.22;2.78;;;24.70;38.90;;;;;;5052400;28;43663;-62
2022/01/10 10:34:24;;;;;;;5.03;3.10;;;24.70;39.10;;;;;;5048732;28;43464;-64
2022/01/10 10:37:05;;;;;;;3.85;2.78;;;24.70;39.10;;;;;;5039549;28;43499;-64
2022/01/10 10:39:38;;;;;;;4.65;2.60;;;24.70;39.10;;;;;;5049291;28;43953;-63
2022/01/10 10:42:12;;;;;;;3.28;2.85;;;24.60;39.10;;;;;;5038950;28;43471;-63
2022/01/10 10:44:42;;;;;;;5.78;2.90;;;24.60;39.30;;;;;;5044018;28;43509;-64
2022/01/10 10:47:17;;;;;;;3.15;2.65;;;24.60;39.40;;;;;;5049395;28;43545;-62
2022/01/10 10:49:50;;;;;;;4.75;2.75;;;24.60;39.60;;;;;;5046462;28;43815;-63
2022/01/10 10:52:18;;;;;;;4.85;3.00;;;24.60;39.60;;;;;;5046850;28;43471;-63
2022/01/10 10:54:45;;;;;;;3.65;2.30;;;24.50;39.60;;;;;;5047316;28;43506;-64
2022/01/10 10:57:14;;;;;;;3.85;2.38;;;24.50;39.90;;;;;;5048168;28;43973;-64
2022/01/10 10:59:43;;;;;;;4.25;2.40;;;24.50;39.90;;;;;;5046323;28;44677;-62
2022/01/10 11:02:12;;;;;;;4.20;2.30;;;24.50;40.00;;;;;;5061417;28;43911;-63
2022/01/10 11:04:41;;;;;;;4.13;2.60;;;24.40;40.00;;;;;;5048613;28;43537;-62
2022/01/10 11:07:10;;;;;;;4.05;2.50;;;24.40;40.00;;;;;;5048432;28;43602;-64
2022/01/10 11:09:58;;;;;;;4.32;2.58;;;24.40;40.10;;;;;;5047362;28;44674;-62
2022/01/10 11:12:28;;;;;;;4.80;2.50;;;24.40;40.20;;;;;;5047335;28;44118;-62
2022/01/10 11:14:59;;;;;;;3.85;2.33;;;24.30;40.20;;;;;;5050035;28;43470;-63
2022/01/10 11:17:28;;;;;;;3.38;2.50;;;24.30;40.20;;;;;;5048948;28;43455;-63
2022/01/10 11:20:15;;;;;;;4.47;2.67;;;24.30;40.30;;;;;;5043656;28;44203;-63
2022/01/10 11:22:47;;;;;;;3.58;2.38;;;24.30;40.40;;;;;;5049662;28;43539;-63
2022/01/10 11:25:42;;;;;;;3.83;2.63;;;24.20;40.30;;;;;;5049262;28;44075;-63
2022/01/10 11:28:23;;;;;;;3.97;2.40;;;24.20;40.40;;;;;;5047270;28;43700;-63
2022/01/10 11:30:53;;;;;;;3.47;2.17;;;24.20;40.50;;;;;;5049568;28;44125;-62
2022/01/10 11:33:26;;;;;;;4.35;2.63;;;24.10;40.50;;;;;;5048036;28;43565;-63
2022/01/10 11:36:09;;;;;;;3.78;2.42;;;24.10;40.50;;;;;;5048275;28;43517;-63
2022/01/10 11:38:49;;;;;;;4.22;2.28;;;24.10;40.60;;;;;;5083122;27;43518;-64
2022/01/10 11:41:23;;;;;;;3.85;2.65;;;24.10;40.70;;;;;;5045384;28;43804;-62
2022/01/10 11:44:12;;;;;;;3.22;2.53;;;24.00;40.70;;;;;;5083726;27;43507;-63
2022/01/10 11:46:40;;;;;;;3.58;2.67;;;24.10;40.80;;;;;;5051573;28;43485;-63
2022/01/10 11:49:12;;;;;;;3.70;2.88;;;24.00;40.80;;;;;;5047049;28;43447;-64
2022/01/10 11:51:52;;;;;;;2.00;1.80;;;24.00;40.90;;;;;;5047871;28;43837;-62
2022/01/10 11:54:27;;;;;;;2.60;2.17;;;24.00;41.00;;;;;;5052530;28;43769;-63
2022/01/10 11:56:59;;;;;;;3.45;2.17;;;24.10;41.00;;;;;;5053914;28;43422;-62
2022/01/10 11:59:32;;;;;;;3.13;2.30;;;24.00;40.90;;;;;;5051883;28;43512;-63
2022/01/10 12:02:11;;;;;;;2.88;2.20;;;24.00;41.00;;;;;;5045190;28;44991;-63
2022/01/10 12:04:49;;;;;;;2.33;1.95;;;24.00;41.00;;;;;;5051993;28;43494;-63
2022/01/10 12:07:19;;;;;;;3.22;2.35;;;24.00;41.00;;;;;;5056257;28;43522;-63
2022/01/10 12:09:47;;;;;;;3.50;2.45;;;23.90;41.00;;;;;;5050318;28;43451;-62
2022/01/10 12:12:20;;;;;;;3.40;2.15;;;23.90;41.10;;;;;;5051445;28;44854;-63
2022/01/10 12:14:48;;;;;;;2.92;2.00;;;23.90;41.20;;;;;;5056579;28;43980;-62
2022/01/10 12:17:16;;;;;;;3.15;2.30;;;23.90;41.30;;;;;;5050631;28;43421;-63
2022/01/10 12:19:44;;;;;;;3.28;2.42;;;23.90;41.30;;;;;;5052378;28;44039;-62
2022/01/10 12:22:12;;;;;;;2.92;2.20;;;23.90;41.20;;;;;;5040881;28;43950;-63
2022/01/10 12:24:43;;;;;;;2.80;2.20;;;23.90;41.30;;;;;;5045360;28;43993;-62
2022/01/10 12:27:15;;;;;;;2.17;1.98;;;23.90;41.30;;;;;;5047879;28;43460;-63
2022/01/10 12:29:44;;;;;;;2.25;1.98;;;23.90;41.30;;;;;;5044135;28;43610;-62
2022/01/10 12:32:12;;;;;;;3.33;2.00;;;23.90;41.30;;;;;;5043681;28;43612;-63
2022/01/10 12:34:42;;;;;;;2.72;2.30;;;23.90;41.30;;;;;;5044183;28;43455;-63
2022/01/10 12:37:10;;;;;;;2.05;1.85;;;23.90;41.30;;;;;;5045033;28;43432;-63
2022/01/10 12:39:39;;;;;;;2.72;2.25;;;23.90;41.30;;;;;;5045319;28;43562;-62
2022/01/10 12:42:07;;;;;;;3.35;2.10;;;23.80;41.20;;;;;;5045047;28;43803;-62
2022/01/10 12:44:36;;;;;;;2.55;2.10;;;23.90;41.30;;;;;;5045312;28;43529;-62
2022/01/10 12:47:03;;;;;;;2.28;2.03;;;23.80;41.30;;;;;;5045496;28;43373;-62
2022/01/10 12:49:34;;;;;;;2.83;2.10;;;23.80;41.30;;;;;;5046889;28;43928;-62
2022/01/10 12:52:03;;;;;;;2.97;2.38;;;23.80;41.30;;;;;;5046218;28;44705;-63
2022/01/10 12:54:31;;;;;;;3.42;2.28;;;23.80;41.30;;;;;;5046215;28;43506;-64
2022/01/10 12:57:01;;;;;;;4.82;2.30;;;23.80;41.30;;;;;;5045482;28;43458;-64
2022/01/10 12:59:31;;;;;;;3.10;2.40;;;23.70;41.20;;;;;;5048583;28;43465;-64
2022/01/10 13:02:00;;;;;;;4.78;2.30;;;23.70;41.20;;;;;;5046871;28;43624;-64
2022/01/10 13:04:34;;;;;;;5.38;2.20;;;23.70;41.20;;;;;;5047367;28;43526;-64
2022/01/10 13:07:07;;;;;;;3.90;2.20;;;23.60;41.20;;;;;;5045977;28;43530;-69